Time;durP1;ratioP1;P1;durP2;ratioP2;P2;SDS_P1;SDS_P2;PMS_P1;PMS_P2;Temp;Humidity;BMP_temperature;BMP_pressure;BME280_temperature;BME280_humidity;BME280_pressure;Samples;Min_cycle;Max_cycle;Signal;HPM_P1;HPM_P2
2021/04/11 00:00:50;;;;;;;39.90;24.95;;;;;;;8.49;53.55;100290.38;147758;1147;104458;-71
2021/04/11 00:03:53;;;;;;;50.20;32.67;;;;;;;8.42;53.94;100293.61;147466;1146;104571;-72
2021/04/11 00:06:56;;;;;;;54.87;32.73;;;;;;;8.31;54.62;100298.17;147509;1147;105161;-72
2021/04/11 00:09:59;;;;;;;83.65;50.17;;;;;;;8.21;53.75;100300.82;147714;1146;104725;-74
2021/04/11 00:13:05;;;;;;;73.02;41.88;;;;;;;8.16;53.93;100298.58;147714;1147;104538;-73
2021/04/11 00:16:09;;;;;;;59.85;35.55;;;;;;;8.08;54.74;100290.43;147331;1146;104514;-72
2021/04/11 00:19:12;;;;;;;68.20;40.17;;;;;;;8.01;54.79;100291.97;147342;1148;104538;-72
2021/04/11 00:22:15;;;;;;;57.90;34.70;;;;;;;7.94;54.75;100282.85;147512;1147;104510;-73
2021/04/11 00:25:21;;;;;;;51.30;30.70;;;;;;;7.91;54.58;100283.11;147681;1146;104533;-75
2021/04/11 00:28:24;;;;;;;51.30;30.60;;;;;;;7.89;55.36;100282.41;147797;1147;104602;-72
2021/04/11 00:31:27;;;;;;;65.03;39.15;;;;;;;7.83;54.42;100289.96;147677;1146;104468;-75
2021/04/11 00:34:30;;;;;;;68.10;40.03;;;;;;;7.78;55.04;100288.68;147698;1147;104581;-75
2021/04/11 00:37:34;;;;;;;47.20;30.50;;;;;;;7.74;55.20;100293.41;147717;1145;104553;-75
2021/04/11 00:40:39;;;;;;;40.43;25.90;;;;;;;7.68;55.27;100293.95;147722;1146;104630;-77
2021/04/11 00:43:43;;;;;;;41.95;25.25;;;;;;;7.69;55.29;100305.41;147318;1147;104610;-77
2021/04/11 00:46:52;;;;;;;37.25;24.40;;;;;;;7.63;54.84;100296.16;147284;1147;104473;-75
2021/04/11 00:49:55;;;;;;;38.67;24.55;;;;;;;7.58;55.48;100295.70;147435;1147;104550;-73
2021/04/11 00:52:59;;;;;;;39.30;25.23;;;;;;;7.59;54.62;100306.20;147356;1147;104608;-73
2021/04/11 00:56:03;;;;;;;36.63;24.60;;;;;;;7.48;55.57;100295.66;147651;1148;105017;-74
2021/04/11 00:59:08;;;;;;;36.90;24.07;;;;;;;7.47;55.78;100301.96;147265;1147;104576;-74
2021/04/11 01:02:11;;;;;;;72.40;40.73;;;;;;;7.47;54.79;100292.17;147307;1146;104476;-73
2021/04/11 01:05:19;;;;;;;62.70;39.18;;;;;;;7.44;55.37;100292.42;147276;1146;104507;-71
2021/04/11 01:08:27;;;;;;;71.97;44.07;;;;;;;7.44;54.94;100289.77;147344;1147;104546;-72
2021/04/11 01:11:32;;;;;;;60.97;36.13;;;;;;;7.37;55.53;100285.98;147718;1148;104668;-73
2021/04/11 01:14:37;;;;;;;59.67;34.98;;;;;;;7.35;56.31;100293.24;147486;1147;104548;-71
2021/04/11 01:17:41;;;;;;;53.00;34.55;;;;;;;7.36;54.95;100292.25;147206;1147;104544;-71
2021/04/11 01:20:44;;;;;;;51.20;32.50;;;;;;;7.36;55.79;100291.42;147697;1146;104540;-76
2021/04/11 01:23:55;;;;;;;53.30;32.30;;;;;;;7.35;55.91;100281.76;147737;1147;104960;-73
2021/04/11 01:27:00;;;;;;;54.00;34.40;;;;;;;7.35;55.36;100282.62;147750;1147;104573;-73
2021/04/11 01:30:12;;;;;;;49.88;30.77;;;;;;;7.34;55.94;100283.58;147735;1147;104547;-72
2021/04/11 01:33:20;;;;;;;41.28;26.42;;;;;;;7.30;56.33;100279.52;147468;1147;104858;-72
2021/04/11 01:36:27;;;;;;;38.40;25.60;;;;;;;7.27;55.04;100279.77;147499;1146;104487;-73
2021/04/11 01:39:35;;;;;;;35.85;24.02;;;;;;;7.27;55.40;100279.77;147296;1146;104543;-73
2021/04/11 01:42:39;;;;;;;38.30;25.67;;;;;;;7.23;56.13;100273.03;147206;1147;104469;-72
2021/04/11 01:45:44;;;;;;;38.13;25.12;;;;;;;7.23;56.27;100267.73;147773;1147;104502;-72
2021/04/11 01:48:49;;;;;;;37.70;25.50;;;;;;;7.22;56.17;100268.72;147759;1147;104484;-73
2021/04/11 01:51:59;;;;;;;37.57;25.20;;;;;;;7.20;55.99;100274.15;147720;1146;104501;-73
2021/04/11 01:55:04;;;;;;;41.25;27.05;;;;;;;7.16;55.42;100261.25;147596;1147;104588;-72
2021/04/11 01:58:10;;;;;;;63.50;41.75;;;;;;;7.11;56.45;100255.52;147115;1147;104562;-73
2021/04/11 02:01:23;;;;;;;56.23;35.30;;;;;;;7.06;56.54;100256.76;147535;1147;104473;-72
2021/04/11 02:04:27;;;;;;;50.33;32.63;;;;;;;7.03;56.61;100259.66;147361;1147;104452;-73
2021/04/11 02:07:31;;;;;;;46.73;31.12;;;;;;;7.00;56.62;100261.73;147460;1147;104473;-76
2021/04/11 02:10:40;;;;;;;48.55;31.95;;;;;;;6.97;56.43;100256.70;147684;1148;104547;-79
2021/04/11 02:13:50;;;;;;;51.90;32.90;;;;;;;6.92;56.16;100251.77;147631;1147;104503;-78
2021/04/11 02:16:57;;;;;;;50.97;32.07;;;;;;;6.89;56.78;100254.69;147488;1147;104560;-75
2021/04/11 02:20:01;;;;;;;45.03;30.02;;;;;;;6.84;56.77;100251.58;147782;1147;104480;-74
2021/04/11 02:23:13;;;;;;;50.50;30.48;;;;;;;6.75;56.90;100244.39;147698;1147;105088;-76
2021/04/11 02:26:16;;;;;;;50.30;31.45;;;;;;;6.71;56.98;100250.92;147805;1146;104444;-74
2021/04/11 02:29:24;;;;;;;43.55;29.10;;;;;;;6.68;56.13;100242.25;147708;1147;104553;-73
2021/04/11 02:32:29;;;;;;;45.40;29.63;;;;;;;6.60;56.45;100239.41;147749;1147;104964;-75
2021/04/11 02:35:32;;;;;;;45.25;29.95;;;;;;;6.59;57.25;100243.02;147715;1147;104601;-72
2021/04/11 02:38:36;;;;;;;46.70;29.70;;;;;;;6.62;56.57;100245.42;147690;1147;104497;-74
2021/04/11 02:41:41;;;;;;;47.40;30.20;;;;;;;6.57;56.45;100250.26;147790;1147;104532;-73
2021/04/11 02:44:48;;;;;;;49.85;32.73;;;;;;;6.57;57.52;100252.91;147755;1146;104615;-74
2021/04/11 02:47:54;;;;;;;48.50;30.48;;;;;;;6.60;56.25;100251.80;147770;1147;104588;-73
2021/04/11 02:50:58;;;;;;;48.47;30.90;;;;;;;6.64;57.15;100264.70;147819;1147;104452;-73
2021/04/11 02:54:11;;;;;;;57.05;32.65;;;;;;;6.69;56.86;100259.83;147492;1147;104497;-74
2021/04/11 02:57:17;;;;;;;53.42;31.80;;;;;;;6.79;57.74;100259.06;147789;1147;104531;-74
2021/04/11 03:00:24;;;;;;;56.33;31.53;;;;;;;6.91;57.19;100258.05;147740;1146;104713;-75
2021/04/11 03:03:29;;;;;;;54.60;33.00;;;;;;;6.96;56.87;100252.35;147768;1146;104834;-74
2021/04/11 03:06:37;;;;;;;54.23;35.15;;;;;;;7.01;57.18;100252.81;147733;1147;104520;-74
2021/04/11 03:09:45;;;;;;;51.60;32.83;;;;;;;7.09;57.60;100250.34;147748;1147;104483;-74
2021/04/11 03:12:54;;;;;;;53.65;34.35;;;;;;;7.09;56.34;100250.34;147749;1147;104455;-74
2021/04/11 03:15:58;;;;;;;52.67;33.10;;;;;;;7.05;57.74;100249.75;147779;1147;104727;-72
2021/04/11 03:19:04;;;;;;;54.45;33.30;;;;;;;7.02;56.60;100255.31;147754;1147;104466;-73
2021/04/11 03:22:09;;;;;;;64.95;38.55;;;;;;;7.01;57.65;100252.81;147775;1148;104533;-73
2021/04/11 03:25:17;;;;;;;64.40;41.07;;;;;;;6.96;57.46;100258.48;147733;1147;104856;-73
2021/04/11 03:28:27;;;;;;;65.13;41.57;;;;;;;6.93;57.65;100256.11;147638;1147;104684;-72
2021/04/11 03:31:38;;;;;;;58.20;36.05;;;;;;;6.84;57.13;100256.88;147226;1147;104751;-74
2021/04/11 03:34:46;;;;;;;53.90;33.37;;;;;;;6.70;56.94;100258.05;147563;1147;104521;-71
2021/04/11 03:37:52;;;;;;;52.90;32.73;;;;;;;6.61;57.00;100266.76;147648;1147;104688;-75
2021/04/11 03:40:58;;;;;;;55.20;32.78;;;;;;;6.49;56.60;100264.15;147783;1147;104532;-76
2021/04/11 03:44:08;;;;;;;63.60;35.83;;;;;;;6.40;57.24;100264.06;147296;1147;104633;-76
2021/04/11 03:47:25;;;;;;;58.08;34.40;;;;;;;6.29;57.21;100267.58;147755;1147;105104;-74
2021/04/11 03:50:34;;;;;;;57.20;33.98;;;;;;;6.20;56.84;100277.14;147738;1147;104541;-75
2021/04/11 03:53:49;;;;;;;58.10;33.90;;;;;;;6.14;57.72;100271.48;147687;1147;104524;-72
2021/04/11 03:57:06;;;;;;;63.42;36.93;;;;;;;6.05;57.00;100279.20;147728;1147;104844;-76
2021/04/11 04:00:14;;;;;;;56.70;33.60;;;;;;;5.98;57.19;100283.31;147765;1147;104559;-74
2021/04/11 04:03:23;;;;;;;59.33;36.00;;;;;;;5.94;56.86;100283.66;147725;1147;104637;-75
2021/04/11 04:06:30;;;;;;;57.13;33.30;;;;;;;5.89;57.21;100281.39;147944;1147;104530;-71
2021/04/11 04:09:34;;;;;;;60.20;36.00;;;;;;;5.84;57.35;100289.68;147791;1147;104550;-73
2021/04/11 04:13:01;;;;;;;61.53;34.98;;;;;;;5.77;57.44;100288.47;147212;1147;104672;-73
2021/04/11 04:16:14;;;;;;;63.13;36.50;;;;;;;5.75;57.60;100290.40;147743;1147;104487;-77
2021/04/11 04:19:46;;;;;;;58.30;34.30;;;;;;;5.73;57.48;100294.14;147707;1147;104623;-77
2021/04/11 04:23:05;;;;;;;61.90;33.80;;;;;;;5.71;56.93;100295.09;147923;1147;104526;-73
2021/04/11 04:26:24;;;;;;;60.78;34.60;;;;;;;5.75;57.60;100303.64;147765;1147;104565;-74
2021/04/11 04:29:35;;;;;;;54.10;32.10;;;;;;;5.81;57.35;100302.31;147556;1147;104550;-76
2021/04/11 04:33:14;;;;;;;56.58;33.58;;;;;;;5.89;57.95;100295.46;147520;1148;104473;-75
2021/04/11 04:36:32;;;;;;;57.90;32.97;;;;;;;6.01;57.30;100296.31;147409;1148;104516;-76
2021/04/11 04:39:52;;;;;;;57.65;33.80;;;;;;;6.16;57.14;100291.61;147271;1147;104448;-76
2021/04/11 04:43:11;;;;;;;50.43;31.27;;;;;;;6.33;57.50;100284.91;147273;1147;104473;-74
2021/04/11 04:46:29;;;;;;;55.08;32.40;;;;;;;6.48;58.17;100288.95;147490;1147;104931;-75
2021/04/11 04:49:40;;;;;;;55.03;31.97;;;;;;;6.63;57.37;100286.86;147686;1147;104464;-75
2021/04/11 04:52:52;;;;;;;49.43;31.50;;;;;;;6.75;58.23;100294.77;147427;1147;104553;-74
2021/04/11 04:56:01;;;;;;;49.53;31.40;;;;;;;6.86;57.55;100292.08;147679;1148;105149;-74
2021/04/11 04:59:12;;;;;;;52.88;31.33;;;;;;;6.98;57.85;100291.03;147725;1147;104594;-76
2021/04/11 05:02:17;;;;;;;53.98;32.85;;;;;;;7.17;57.59;100290.32;147742;1146;104887;-73
2021/04/11 05:05:34;;;;;;;53.05;33.42;;;;;;;7.36;58.94;100278.98;147800;1147;104513;-74
2021/04/11 05:08:44;;;;;;;50.80;32.30;;;;;;;7.55;58.01;100278.23;147732;1147;104530;-72
2021/04/11 05:11:54;;;;;;;67.15;39.00;;;;;;;7.73;58.90;100288.23;147790;1147;104581;-79
2021/04/11 05:15:02;;;;;;;52.38;30.92;;;;;;;7.95;58.33;100285.38;147426;1147;104472;-75
2021/04/11 05:18:12;;;;;;;56.73;34.77;;;;;;;8.18;58.35;100286.00;147580;1148;104483;-68
2021/04/11 05:21:20;;;;;;;55.88;34.08;;;;;;;8.39;58.65;100291.21;147572;1147;104550;-69
2021/04/11 05:24:27;;;;;;;229.93;140.20;;;;;;;8.55;58.54;100293.34;147594;1147;104665;-70
2021/04/11 05:27:39;;;;;;;179.30;107.43;;;;;;;8.71;58.32;100287.46;147474;1147;104548;-73
2021/04/11 05:30:47;;;;;;;84.20;52.83;;;;;;;8.84;58.41;100295.17;147651;1147;104583;-73
2021/04/11 05:33:51;;;;;;;74.42;45.25;;;;;;;8.94;58.39;100292.50;147600;1146;104461;-72
2021/04/11 05:37:01;;;;;;;69.25;44.30;;;;;;;9.02;58.26;100290.80;147653;1148;104550;-68
2021/04/11 05:40:13;;;;;;;72.10;45.83;;;;;;;9.09;58.59;100296.41;147636;1148;104627;-71
2021/04/11 05:43:19;;;;;;;;;;;;;;;9.18;58.39;100286.70;147721;1147;104477;-74
2021/04/11 05:46:29;;;;;;;1126.90;800.22;;;;;;;9.25;58.67;100287.82;147761;1147;104489;-75
2021/04/11 05:49:39;;;;;;;642.05;443.25;;;;;;;9.34;58.40;100284.30;147725;1147;104502;-73
2021/04/11 05:52:49;;;;;;;718.90;537.72;;;;;;;9.43;58.55;100272.78;147744;1147;104550;-70
2021/04/11 05:55:56;;;;;;;237.65;158.40;;;;;;;9.51;58.15;100268.56;147665;1147;104574;-71
2021/04/11 05:59:03;;;;;;;193.97;135.60;;;;;;;9.57;58.11;100270.64;147706;1147;104430;-72
2021/04/11 06:02:12;;;;;;;106.58;71.53;;;;;;;9.63;58.38;100267.37;147682;1147;104473;-81
2021/04/11 06:05:25;;;;;;;74.58;48.05;;;;;;;9.71;58.53;100259.48;147531;1148;104547;-82
2021/04/11 06:08:33;;;;;;;64.13;41.53;;;;;;;9.77;58.05;100264.22;147846;1146;104550;-76
2021/04/11 06:11:42;;;;;;;64.97;44.15;;;;;;;9.85;58.00;100250.16;147791;1147;104460;-84
2021/04/11 06:14:53;;;;;;;53.95;37.35;;;;;;;9.92;57.99;100251.24;147672;1148;104547;-74
2021/04/11 06:17:57;;;;;;;48.68;32.88;;;;;;;9.99;57.85;100241.67;147768;1146;104562;-77
2021/04/11 06:21:07;;;;;;;48.10;31.90;;;;;;;10.09;57.57;100246.94;147757;1147;104441;-82
2021/04/11 06:24:25;;;;;;;48.30;32.85;;;;;;;10.19;57.50;100247.70;147723;1147;104547;-72
2021/04/11 06:27:39;;;;;;;57.38;36.60;;;;;;;10.29;56.95;100239.63;147749;1147;104537;-72
2021/04/11 06:30:51;;;;;;;39.88;26.52;;;;;;;10.40;57.34;100243.95;147717;1147;104540;-76
2021/04/11 06:34:01;;;;;;;37.88;24.75;;;;;;;10.52;57.07;100232.05;147519;1147;104467;-75
2021/04/11 06:37:08;;;;;;;39.55;24.43;;;;;;;10.63;56.70;100233.65;147543;1147;104470;-76
2021/04/11 06:40:27;;;;;;;35.78;23.00;;;;;;;10.76;57.06;100233.27;147407;1148;104536;-74
2021/04/11 06:44:11;;;;;;;33.50;21.60;;;;;;;10.85;56.28;100231.48;147584;1147;104455;-74
2021/04/11 06:47:43;;;;;;;35.23;21.45;;;;;;;10.99;56.27;100236.27;147348;1148;104540;-74
2021/04/11 06:50:55;;;;;;;;;;;;;;;11.22;56.94;100241.06;147723;1147;104546;-74
2021/04/11 06:54:25;;;;;;;29.63;19.25;;;;;;;11.30;55.81;100235.80;147540;1147;104557;-73
2021/04/11 06:57:37;;;;;;;29.77;19.75;;;;;;;11.38;56.55;100233.16;147761;1147;104544;-77
2021/04/11 07:00:53;;;;;;;33.13;20.13;;;;;;;11.45;55.84;100236.88;147542;1147;104724;-72
2021/04/11 07:04:32;;;;;;;31.60;20.70;;;;;;;11.54;55.42;100241.24;147641;1147;104621;-72
2021/04/11 07:08:15;;;;;;;33.23;21.25;;;;;;;11.66;55.72;100239.12;147644;1147;104481;-72
2021/04/11 07:11:56;;;;;;;31.65;21.05;;;;;;;11.76;55.91;100234.51;147708;1148;104523;-74
2021/04/11 07:15:30;;;;;;;34.13;21.52;;;;;;;11.93;54.99;100239.92;147845;1147;105017;-71
2021/04/11 07:19:11;;;;;;;34.63;22.17;;;;;;;12.06;55.16;100234.95;147739;1146;104540;-72
2021/04/11 07:22:55;;;;;;;32.73;22.17;;;;;;;12.15;54.79;100239.33;147426;1147;104480;-72
2021/04/11 07:26:13;;;;;;;33.00;22.07;;;;;;;12.28;55.39;100227.30;147322;1146;104546;-72
2021/04/11 07:29:38;;;;;;;33.95;22.22;;;;;;;12.40;55.32;100220.64;147708;1147;104449;-74
2021/04/11 07:33:01;;;;;;;31.53;20.97;;;;;;;12.50;54.99;100220.48;147739;1147;104819;-71
2021/04/11 07:36:39;;;;;;;28.03;20.03;;;;;;;12.58;54.53;100220.48;147701;1147;104620;-71
2021/04/11 07:40:06;;;;;;;33.18;24.65;;;;;;;12.69;54.89;100216.64;147739;1147;104470;-71
2021/04/11 07:43:23;;;;;;;30.10;20.08;;;;;;;12.77;54.22;100212.11;147850;1147;104603;-72
2021/04/11 07:46:49;;;;;;;35.68;19.95;;;;;;;12.86;54.76;100210.27;147814;1146;104919;-72
2021/04/11 07:50:16;;;;;;;29.87;19.73;;;;;;;12.95;54.13;100206.58;148005;1147;104470;-71
2021/04/11 07:53:47;;;;;;;27.25;19.02;;;;;;;13.02;54.21;100205.90;147945;1145;104557;-70
2021/04/11 07:57:07;;;;;;;32.88;19.57;;;;;;;13.11;54.02;100210.24;147801;1147;104452;-72
2021/04/11 08:00:19;;;;;;;28.00;19.00;;;;;;;13.22;54.12;100204.52;147627;1147;104962;-72
2021/04/11 08:03:42;;;;;;;29.82;17.77;;;;;;;13.35;53.92;100199.47;147325;1147;104549;-72
2021/04/11 08:07:07;;;;;;;25.67;16.77;;;;;;;13.48;53.50;100206.14;147597;1147;104495;-75
2021/04/11 08:10:21;;;;;;;22.67;15.70;;;;;;;13.61;53.86;100208.28;147766;1147;104691;-72
2021/04/11 08:13:47;;;;;;;28.50;16.50;;;;;;;13.71;52.79;100207.04;147782;1147;104483;-72
2021/04/11 08:17:04;;;;;;;24.80;15.23;;;;;;;13.83;53.27;100206.66;147193;1147;104544;-73
2021/04/11 08:20:33;;;;;;;21.52;13.53;;;;;;;13.92;52.28;100197.56;147429;1147;104500;-72
2021/04/11 08:24:06;;;;;;;20.47;13.10;;;;;;;14.04;52.60;100206.04;147463;1146;104547;-72
2021/04/11 08:27:47;;;;;;;18.30;13.05;;;;;;;14.17;52.57;100200.10;147697;1147;104561;-72
2021/04/11 08:31:27;;;;;;;20.45;11.53;;;;;;;14.26;51.94;100189.13;147471;1147;104489;-72
2021/04/11 08:35:02;;;;;;;15.68;10.20;;;;;;;14.40;51.92;100192.05;147715;1147;104450;-74
2021/04/11 08:38:30;;;;;;;20.40;11.20;;;;;;;14.51;51.68;100181.72;147639;1147;104449;-71
2021/04/11 08:41:51;;;;;;;19.55;12.53;;;;;;;14.62;51.55;100179.64;147585;1147;105036;-73
2021/04/11 08:45:23;;;;;;;19.07;11.57;;;;;;;14.71;51.43;100179.38;147295;1146;106035;-71
2021/04/11 08:48:43;;;;;;;16.93;10.63;;;;;;;14.81;51.22;100171.06;147923;1147;104516;-74
2021/04/11 08:51:59;;;;;;;14.55;10.13;;;;;;;14.90;49.96;100169.97;147569;1147;104556;-70
2021/04/11 08:55:13;;;;;;;17.45;10.25;;;;;;;14.99;49.66;100159.13;147805;1147;104529;-72
2021/04/11 08:58:33;;;;;;;15.40;9.20;;;;;;;15.09;49.25;100157.03;147582;1147;104486;-72
2021/04/11 09:01:48;;;;;;;13.30;9.15;;;;;;;15.21;48.84;100147.47;147479;1148;104564;-70
2021/04/11 09:04:59;;;;;;;14.50;9.23;;;;;;;15.35;49.62;100142.27;147144;1146;104546;-71
2021/04/11 09:08:14;;;;;;;16.20;8.45;;;;;;;15.43;48.79;100134.09;147244;1147;104545;-70
2021/04/11 09:11:39;;;;;;;13.80;8.67;;;;;;;15.54;47.27;100133.62;147633;1146;104565;-70
2021/04/11 09:14:58;;;;;;;11.38;7.90;;;;;;;15.66;47.71;100124.02;147726;1147;104532;-72
2021/04/11 09:18:15;;;;;;;11.33;7.40;;;;;;;15.73;47.16;100113.39;147242;1147;104462;-71
2021/04/11 09:21:36;;;;;;;12.82;7.53;;;;;;;15.85;46.38;100109.16;147426;1147;104525;-71
2021/04/11 09:24:46;;;;;;;12.63;7.23;;;;;;;15.95;46.20;100095.39;147703;1146;104655;-72
2021/04/11 09:28:09;;;;;;;11.73;6.80;;;;;;;16.04;47.52;100101.48;147688;1147;104543;-72
2021/04/11 09:31:28;;;;;;;12.65;7.78;;;;;;;16.18;46.01;100097.05;147630;1146;104470;-71
2021/04/11 09:35:01;;;;;;;11.00;7.13;;;;;;;16.31;45.89;100097.17;147726;1146;104515;-72
2021/04/11 09:38:40;;;;;;;12.45;7.05;;;;;;;16.36;45.57;100085.80;149374;1147;104447;-71
2021/04/11 09:42:19;;;;;;;11.70;6.40;;;;;;;16.46;45.42;100081.75;150174;1147;104394;-71
2021/04/11 09:45:46;;;;;;;7.55;4.25;;;;;;;16.56;41.75;100080.58;147219;1146;104539;-72
2021/04/11 09:49:03;;;;;;;5.62;3.50;;;;;;;16.69;43.23;100078.80;147482;1147;104448;-73
2021/04/11 09:52:42;;;;;;;6.55;3.33;;;;;;;16.82;43.71;100088.88;147673;1148;104603;-72
2021/04/11 09:55:53;;;;;;;7.28;3.20;;;;;;;16.96;42.88;100078.17;147761;1147;104498;-72
2021/04/11 09:59:18;;;;;;;6.37;3.40;;;;;;;17.04;40.45;100080.70;147467;1147;104466;-72
2021/04/11 10:02:52;;;;;;;6.95;3.17;;;;;;;17.15;42.86;100077.44;147252;1147;104539;-72
2021/04/11 10:06:08;;;;;;;5.47;3.30;;;;;;;17.23;42.40;100084.52;147465;1147;104589;-73
2021/04/11 10:09:30;;;;;;;5.47;3.30;;;;;;;17.26;42.76;100084.95;147649;1147;104604;-71
2021/04/11 10:13:09;;;;;;;6.77;3.23;;;;;;;17.36;43.05;100089.12;147787;1146;104608;-73
2021/04/11 10:16:25;;;;;;;6.08;3.20;;;;;;;17.39;42.58;100077.94;147572;1147;104672;-74
2021/04/11 10:19:50;;;;;;;5.35;3.00;;;;;;;17.46;43.20;100070.70;147674;1147;104466;-71
2021/04/11 10:22:59;;;;;;;4.17;3.10;;;;;;;17.50;42.55;100069.27;147314;1146;104532;-72
2021/04/11 10:26:06;;;;;;;5.85;2.90;;;;;;;17.53;42.86;100078.81;147172;1146;104719;-72
2021/04/11 10:29:15;;;;;;;5.00;2.90;;;;;;;17.58;41.07;100069.07;147568;1148;104582;-72
2021/04/11 10:32:28;;;;;;;6.75;3.20;;;;;;;17.65;41.42;100072.62;147724;1147;104543;-72
2021/04/11 10:35:39;;;;;;;4.75;2.75;;;;;;;17.73;42.92;100073.48;147311;1147;104461;-72
2021/04/11 10:38:52;;;;;;;5.50;3.30;;;;;;;17.82;42.17;100069.53;147417;1146;104598;-72
2021/04/11 10:42:12;;;;;;;5.12;2.83;;;;;;;17.90;42.20;100061.29;147807;1147;104617;-73
2021/04/11 10:45:24;;;;;;;5.47;3.20;;;;;;;17.96;42.88;100068.56;147759;1146;104460;-71
2021/04/11 10:48:49;;;;;;;4.47;2.90;;;;;;;17.99;42.37;100061.91;147729;1148;104467;-73
2021/04/11 10:52:25;;;;;;;11.18;3.52;;;;;;;18.04;42.14;100054.84;147743;1147;104473;-72
2021/04/11 10:55:42;;;;;;;4.95;2.85;;;;;;;18.07;42.62;100050.89;147807;1147;104978;-72
2021/04/11 10:59:32;;;;;;;6.00;3.62;;;;;;;18.08;41.86;100049.88;147725;1146;104623;-72
2021/04/11 11:03:22;;;;;;;4.37;2.97;;;;;;;18.10;41.35;100049.67;147169;1150;104655;-72
2021/04/11 11:06:41;;;;;;;7.50;3.40;;;;;;;18.17;40.99;100037.01;147196;1148;104713;-72
2021/04/11 11:09:51;;;;;;;5.42;3.10;;;;;;;18.20;39.56;100037.39;147704;1148;104566;-72
2021/04/11 11:13:22;;;;;;;6.65;3.10;;;;;;;18.20;41.81;100031.17;147714;1147;104453;-74
2021/04/11 11:16:40;;;;;;;7.40;3.10;;;;;;;18.23;41.76;100026.19;147765;1147;104453;-72
2021/04/11 11:20:14;;;;;;;5.97;3.22;;;;;;;18.27;41.70;100045.52;147530;1147;104495;-73
2021/04/11 11:23:49;;;;;;;5.25;3.33;;;;;;;18.36;41.95;100035.30;147714;1147;104470;-72
2021/04/11 11:27:12;;;;;;;5.35;3.30;;;;;;;18.45;41.32;100032.17;147660;1147;104550;-72
2021/04/11 11:30:22;;;;;;;4.57;3.00;;;;;;;18.53;39.52;100031.13;147755;1147;104631;-71
2021/04/11 11:33:37;;;;;;;5.30;2.87;;;;;;;18.54;39.44;100034.68;147739;1147;104574;-72
2021/04/11 11:36:46;;;;;;;4.83;2.70;;;;;;;18.57;39.43;100037.79;147758;1147;104575;-73
2021/04/11 11:39:58;;;;;;;5.92;2.80;;;;;;;18.68;38.98;100022.78;147701;1147;104466;-73
2021/04/11 11:43:12;;;;;;;3.67;2.50;;;;;;;18.72;39.95;100024.02;147738;1148;104547;-73
2021/04/11 11:46:26;;;;;;;5.97;2.70;;;;;;;18.75;39.06;100023.61;147695;1147;104532;-72
2021/04/11 11:49:38;;;;;;;6.45;2.83;;;;;;;18.72;38.47;100018.61;147564;1148;104602;-73
2021/04/11 11:52:43;;;;;;;;;;;;;;;18.69;38.66;100008.23;147258;1146;104562;-72
2021/04/11 11:56:02;;;;;;;6.92;2.55;;;;;;;18.67;38.38;100015.73;147638;1147;104441;-72
2021/04/11 11:59:13;;;;;;;4.63;2.40;;;;;;;18.67;38.50;100015.73;147201;1148;105017;-73
2021/04/11 12:02:29;;;;;;;4.78;2.35;;;;;;;18.66;37.65;100010.53;147813;1146;104566;-72
2021/04/11 12:05:42;;;;;;;4.10;2.20;;;;;;;18.67;37.98;100013.03;148506;1146;104466;-72
2021/04/11 12:08:54;;;;;;;5.42;2.40;;;;;;;18.69;36.28;100002.84;147652;1147;104471;-71
2021/04/11 12:12:04;;;;;;;4.72;2.62;;;;;;;18.75;38.21;99998.45;148037;1147;104444;-70
2021/04/11 12:15:14;;;;;;;5.30;2.52;;;;;;;18.79;36.30;99991.58;147786;1147;104460;-72
2021/04/11 12:18:22;;;;;;;5.50;2.50;;;;;;;18.81;37.82;100003.86;147662;1147;104523;-72
2021/04/11 12:21:33;;;;;;;6.60;2.42;;;;;;;18.86;37.64;99994.27;147703;1147;104886;-75
2021/04/11 12:24:39;;;;;;;5.87;2.62;;;;;;;18.93;38.08;99978.86;147687;1148;104544;-72
2021/04/11 12:27:43;;;;;;;4.23;2.90;;;;;;;19.05;37.67;99981.72;147546;1147;104544;-72
2021/04/11 12:30:46;;;;;;;6.17;2.50;;;;;;;19.17;37.50;99985.42;147757;1147;104542;-71
2021/04/11 12:33:58;;;;;;;5.17;2.40;;;;;;;19.28;36.22;99989.30;147577;1147;104501;-71
2021/04/11 12:37:16;;;;;;;4.37;2.52;;;;;;;19.32;36.68;99996.78;147609;1147;104612;-71
2021/04/11 12:40:27;;;;;;;4.05;2.55;;;;;;;19.31;36.56;99978.87;147756;1146;104552;-71
2021/04/11 12:43:41;;;;;;;3.92;2.50;;;;;;;19.29;35.65;99986.37;147795;1147;104470;-71
2021/04/11 12:46:58;;;;;;;4.35;2.80;;;;;;;19.28;36.75;99994.70;147616;1147;104493;-69
2021/04/11 12:50:06;;;;;;;4.05;2.22;;;;;;;19.30;37.25;99989.91;147653;1147;104543;-69
2021/04/11 12:53:20;;;;;;;7.40;2.22;;;;;;;19.32;36.71;99999.48;147332;1147;104521;-70
2021/04/11 12:56:24;;;;;;;3.60;2.58;;;;;;;19.33;36.41;99975.95;147596;1147;104466;-71
2021/04/11 12:59:34;;;;;;;5.43;2.30;;;;;;;19.34;37.00;99997.39;147530;1147;104473;-70
2021/04/11 13:02:50;;;;;;;3.92;2.30;;;;;;;19.34;35.50;99999.24;147393;1146;104535;-69
2021/04/11 13:06:05;;;;;;;6.93;2.37;;;;;;;19.31;34.77;100005.11;147658;1147;104538;-70
2021/04/11 13:09:43;;;;;;;4.00;2.37;;;;;;;19.26;33.97;99999.50;147693;1147;104657;-69
2021/04/11 13:13:00;;;;;;;3.57;2.40;;;;;;;19.22;35.76;99996.40;147512;1146;104570;-69
2021/04/11 13:16:14;;;;;;;4.87;2.17;;;;;;;19.25;34.16;99993.27;147624;1147;104522;-70
2021/04/11 13:19:21;;;;;;;3.70;2.03;;;;;;;19.33;35.28;99992.19;147643;1146;104547;-69
2021/04/11 13:22:29;;;;;;;3.65;2.30;;;;;;;19.45;35.90;99985.03;147195;1147;104717;-71
2021/04/11 13:25:41;;;;;;;5.17;2.70;;;;;;;19.61;35.71;99983.66;147138;1146;104534;-74
2021/04/11 13:28:49;;;;;;;3.92;2.37;;;;;;;19.73;35.92;99970.31;147608;1147;104540;-73
2021/04/11 13:31:57;;;;;;;6.05;2.65;;;;;;;19.86;34.55;99972.91;147758;1147;104551;-74
2021/04/11 13:35:08;;;;;;;3.95;2.22;;;;;;;19.91;36.08;99972.23;147715;1147;104546;-74
2021/04/11 13:38:19;;;;;;;2.85;2.30;;;;;;;19.95;34.87;99971.55;147817;1147;104528;-77
2021/04/11 13:41:29;;;;;;;6.87;2.50;;;;;;;19.99;35.01;99970.06;147608;1146;104461;-76
2021/04/11 13:44:40;;;;;;;5.87;2.50;;;;;;;19.99;33.93;99964.64;147753;1147;104455;-74
2021/04/11 13:47:51;;;;;;;;;;;;;;;19.97;32.31;99965.92;147676;1147;104470;-70
2021/04/11 13:51:09;;;;;;;254.25;113.97;;;;;;;19.97;34.98;99966.75;147159;1147;105663;-66
2021/04/11 13:54:39;;;;;;;17.35;7.55;;;;;;;19.99;34.90;99958.41;147499;1147;104470;-68
2021/04/11 13:57:47;;;;;;;5.85;3.20;;;;;;;19.99;34.39;99958.41;147119;1147;105602;-68
2021/04/11 14:01:01;;;;;;;4.50;2.73;;;;;;;20.01;34.63;99953.59;147114;1145;104546;-69
2021/04/11 14:04:12;;;;;;;3.77;2.17;;;;;;;20.02;33.86;99951.73;147083;1147;104908;-69
2021/04/11 14:07:21;;;;;;;4.27;2.07;;;;;;;20.01;34.50;99950.89;147175;1147;104559;-69
2021/04/11 14:10:31;;;;;;;7.37;3.37;;;;;;;20.06;35.14;99950.23;147505;1147;104860;-69
2021/04/11 14:13:38;;;;;;;10.18;4.70;;;;;;;20.03;33.67;99940.66;147485;1147;104614;-67
2021/04/11 14:16:48;;;;;;;4.80;3.00;;;;;;;19.98;33.97;99956.77;147558;1147;104494;-68
2021/04/11 14:20:04;;;;;;;7.05;3.80;;;;;;;19.96;33.91;99956.98;147661;1147;104545;-67
2021/04/11 14:23:27;;;;;;;3.45;2.00;;;;;;;19.93;34.15;99952.00;147498;1146;104464;-68
2021/04/11 14:26:42;;;;;;;15.98;10.90;;;;;;;19.86;34.29;99953.95;147660;1146;104525;-70
2021/04/11 14:29:58;;;;;;;7.80;3.33;;;;;;;19.80;34.05;99946.70;147521;1147;104620;-71
2021/04/11 14:33:10;;;;;;;4.05;2.30;;;;;;;19.73;33.17;99941.35;147555;1146;105120;-70
2021/04/11 14:36:18;;;;;;;5.10;2.08;;;;;;;19.66;32.78;99943.24;147607;1148;104467;-72